Time;durP1;ratioP1;P1;durP2;ratioP2;P2;SDS_P1;SDS_P2;PMS_P1;PMS_P2;Temp;Humidity;BMP_temperature;BMP_pressure;BME280_temperature;BME280_humidity;BME280_pressure;Samples;Min_cycle;Max_cycle;Signal;HPM_P1;HPM_P2
2023/06/02 04:27:48;;;;;;;;;;;;;;;21.21;58.75;96652.09;4281618;27;10126;-71
2023/06/02 04:29:51;;;;;;;;;;;;;;;21.49;58.23;96651.63;4271596;27;5575;-72
2023/06/02 04:31:55;;;;;;;;;;;;;;;21.70;57.66;96657.06;4273764;27;5683;-70
2023/06/02 04:33:57;;;;;;;;;;;;;;;21.85;57.35;96657.06;4259128;27;5524;-71
2023/06/02 04:36:00;;;;;;;;;;;;;;;22.00;57.40;96659.78;4231010;27;5670;-71
2023/06/02 04:38:04;;;;;;;;;;;;;;;22.13;56.90;96661.16;4270556;27;5931;-71
2023/06/02 04:40:08;;;;;;;;;;;;;;;22.23;56.83;96661.16;4271528;27;6321;-71
2023/06/02 04:42:11;;;;;;;;;;;;;;;22.31;56.99;96651.69;4248103;27;6491;-71
2023/06/02 04:44:16;;;;;;;;;;;;;;;22.38;56.66;96661.13;4257317;27;5605;-71
2023/06/02 04:46:19;;;;;;;;;;;;;;;22.44;56.36;96661.94;4252748;27;5736;-70
2023/06/02 04:48:22;;;;;;;;;;;;;;;22.49;56.50;96656.53;4265821;27;5591;-70
2023/06/02 04:50:25;;;;;;;;;;;;;;;22.52;56.44;96655.97;4258478;27;5867;-70
2023/06/02 04:52:28;;;;;;;;;;;;;;;22.57;56.20;96653.28;4261167;27;5596;-70
2023/06/02 04:54:31;;;;;;;;;;;;;;;22.60;56.01;96663.50;4272118;27;5646;-71
2023/06/02 04:56:35;;;;;;;;;;;;;;;22.63;55.84;96662.16;4250821;27;5696;-70
2023/06/02 04:58:38;;;;;;;;;;;;;;;22.65;56.02;96654.59;4273130;27;5578;-71
2023/06/02 05:00:42;;;;;;;;;;;;;;;22.65;55.82;96663.53;4255696;27;5591;-71
2023/06/02 05:02:46;;;;;;;;;;;;;;;22.69;55.49;96663.78;4254852;27;5694;-71
2023/06/02 05:04:49;;;;;;;;;;;;;;;22.71;55.36;96660.81;4271658;27;5586;-72
2023/06/02 05:06:52;;;;;;;;;;;;;;;22.72;55.34;96667.81;4246677;27;5821;-70
2023/06/02 05:08:55;;;;;;;;;;;;;;;22.74;55.45;96662.94;4251086;27;5593;-71
2023/06/02 05:10:58;;;;;;;;;;;;;;;22.73;54.96;96669.41;4253542;27;5956;-70
2023/06/02 05:13:01;;;;;;;;;;;;;;;22.71;55.24;96658.91;4253423;27;5849;-70
2023/06/02 05:15:06;;;;;;;;;;;;;;;22.69;54.95;96661.06;4255627;27;5752;-70
2023/06/02 05:17:10;;;;;;;;;;;;;;;22.74;55.05;96663.75;4253662;27;5693;-70
2023/06/02 05:19:13;;;;;;;;;;;;;;;22.78;54.46;96658.63;4248020;27;5763;-70
2023/06/02 05:21:16;;;;;;;;;;;;;;;22.74;55.01;96661.06;4247324;27;5820;-70
2023/06/02 05:23:19;;;;;;;;;;;;;;;22.74;54.68;96661.06;4247540;27;5652;-69
2023/06/02 05:25:22;;;;;;;;;;;;;;;22.76;54.21;96652.69;4258005;27;7223;-70
2023/06/02 05:27:25;;;;;;;;;;;;;;;22.88;54.04;96653.25;4257739;27;5996;-69
2023/06/02 05:29:27;;;;;;;;;;;;;;;22.96;54.14;96660.75;4253051;27;5117;-69
2023/06/02 05:31:30;;;;;;;;;;;;;;;23.08;54.02;96661.25;4243945;27;5912;-70
2023/06/02 05:33:34;;;;;;;;;;;;;;;23.14;53.89;96670.94;4252423;27;5610;-70
2023/06/02 05:35:37;;;;;;;;;;;;;;;23.19;53.67;96662.81;4246642;27;5697;-69
2023/06/02 05:37:42;;;;;;;;;;;;;;;23.28;53.32;96664.94;4243189;27;6631;-70
2023/06/02 05:39:45;;;;;;;;;;;;;;;23.34;52.96;96666.53;4235440;28;5608;-70
2023/06/02 05:41:47;;;;;;;;;;;;;;;23.40;52.89;96668.09;4248996;27;5590;-69
2023/06/02 05:43:50;;;;;;;;;;;;;;;23.43;52.66;96657.56;4236686;27;5713;-70
2023/06/02 05:45:53;;;;;;;;;;;;;;;23.45;52.59;96665.41;4251708;27;5701;-70
2023/06/02 05:47:56;;;;;;;;;;;;;;;23.51;52.68;96667.78;4246170;27;5591;-70
2023/06/02 05:50:01;;;;;;;;;;;;;;;23.53;52.74;96664.78;4242702;27;5609;-68
2023/06/02 05:52:04;;;;;;;;;;;;;;;23.61;52.19;96658.84;4237527;27;6634;-69
2023/06/02 05:54:08;;;;;;;;;;;;;;;23.69;51.94;96655.56;4244637;27;5599;-69
2023/06/02 05:56:11;;;;;;;;;;;;;;;23.74;51.91;96666.31;4246223;27;5597;-69
2023/06/02 05:58:14;;;;;;;;;;;;;;;23.76;51.79;96664.13;4244372;27;5593;-69
2023/06/02 06:00:18;;;;;;;;;;;;;;;23.81;51.46;96657.91;4244516;27;5605;-69
2023/06/02 06:02:21;;;;;;;;;;;;;;;23.90;51.38;96663.50;4235826;27;5597;-69
2023/06/02 06:04:24;;;;;;;;;;;;;;;23.93;51.13;96658.38;4237427;27;5936;-69
2023/06/02 06:06:28;;;;;;;;;;;;;;;23.98;51.54;96663.72;4247250;27;5889;-69
2023/06/02 06:08:31;;;;;;;;;;;;;;;23.99;51.39;96662.63;4259496;27;5651;-69
2023/06/02 06:10:34;;;;;;;;;;;;;;;24.06;50.95;96665.00;4245309;27;5728;-69
2023/06/02 06:12:37;;;;;;;;;;;;;;;24.07;51.46;96663.94;4246101;27;5636;-69
2023/06/02 06:14:41;;;;;;;;;;;;;;;24.08;51.03;96665.53;4241401;27;5593;-69
2023/06/02 06:16:43;;;;;;;;;;;;;;;24.14;50.90;96669.81;4244941;27;6062;-69
2023/06/02 06:18:46;;;;;;;;;;;;;;;24.20;50.48;96665.97;4261099;27;5567;-69
2023/06/02 06:20:49;;;;;;;;;;;;;;;24.26;50.60;96667.56;4252556;27;5606;-69
2023/06/02 06:22:53;;;;;;;;;;;;;;;24.31;50.73;96667.53;4260244;27;6283;-68
2023/06/02 06:24:57;;;;;;;;;;;;;;;24.32;50.46;96671.84;4262730;27;5560;-68
2023/06/02 06:27:00;;;;;;;;;;;;;;;24.31;50.61;96669.44;4251265;27;5609;-69
2023/06/02 06:29:03;;;;;;;;;;;;;;;24.33;50.12;96667.25;4243578;27;5598;-69
2023/06/02 06:31:06;;;;;;;;;;;;;;;24.33;49.97;96675.34;4246423;27;5559;-68
2023/06/02 06:33:09;;;;;;;;;;;;;;;24.35;50.03;96675.84;4229493;27;5098;-69
2023/06/02 06:35:12;;;;;;;;;;;;;;;24.35;50.03;96682.09;4265368;27;5575;-69
2023/06/02 06:37:15;;;;;;;;;;;;;;;24.25;50.33;96684.84;4244023;27;5600;-69
2023/06/02 06:39:19;;;;;;;;;;;;;;;24.23;50.35;96680.78;4247525;27;5594;-69
2023/06/02 06:41:22;;;;;;;;;;;;;;;24.29;50.04;96682.38;4260732;27;5578;-70
2023/06/02 06:43:25;;;;;;;;;;;;;;;24.31;49.76;96683.72;4255053;27;5709;-72
2023/06/02 06:45:28;;;;;;;;;;;;;;;24.26;50.12;96675.66;4246805;27;5848;-70
2023/06/02 06:47:31;;;;;;;;;;;;;;;24.23;50.07;96681.59;4241692;27;5630;-69
2023/06/02 06:49:34;;;;;;;;;;;;;;;24.21;49.95;96682.97;4234575;28;5860;-70
2023/06/02 06:51:37;;;;;;;;;;;;;;;24.21;49.54;96677.59;4234556;28;5621;-68
2023/06/02 06:53:40;;;;;;;;;;;;;;;24.17;50.07;96677.34;4239775;27;5585;-69
2023/06/02 06:55:44;;;;;;;;;;;;;;;24.17;49.53;96677.34;4260701;27;5603;-69
2023/06/02 06:57:47;;;;;;;;;;;;;;;24.21;49.83;96680.28;4243615;27;5601;-69
2023/06/02 06:59:51;;;;;;;;;;;;;;;24.22;49.82;96680.00;4250971;27;5590;-69
2023/06/02 07:01:54;;;;;;;;;;;;;;;24.20;49.46;96681.38;4243522;27;6289;-69
2023/06/02 07:03:58;;;;;;;;;;;;;;;24.17;49.25;96680.03;4240879;27;5605;-69
2023/06/02 07:06:02;;;;;;;;;;;;;;;24.11;49.11;96678.47;4243314;27;5697;-69
2023/06/02 07:08:05;;;;;;;;;;;;;;;24.05;49.45;96682.31;4248666;27;6306;-69
2023/06/02 07:10:08;;;;;;;;;;;;;;;24.02;49.04;96680.19;4243488;27;5919;-69
2023/06/02 07:12:12;;;;;;;;;;;;;;;24.06;49.00;96676.63;4243536;27;5609;-68
2023/06/02 07:14:16;;;;;;;;;;;;;;;24.06;48.86;96678.50;4237810;27;5578;-68
2023/06/02 07:16:21;;;;;;;;;;;;;;;24.01;48.83;96678.53;4240430;27;6413;-68
2023/06/02 07:18:24;;;;;;;;;;;;;;;23.97;49.14;96682.91;4246053;27;5712;-69
2023/06/02 07:20:26;;;;;;;;;;;;;;;23.93;48.58;96677.25;4242954;27;5585;-69
2023/06/02 07:22:29;;;;;;;;;;;;;;;23.93;48.76;96682.66;4234753;28;5685;-68
2023/06/02 07:24:32;;;;;;;;;;;;;;;23.96;48.86;96681.28;4238802;27;5593;-84
2023/06/02 07:26:35;;;;;;;;;;;;;;;23.96;48.64;96687.50;4251357;27;5578;-83
2023/06/02 07:28:40;;;;;;;;;;;;;;;23.95;48.23;96685.88;4252266;27;5575;-78
2023/06/02 07:30:52;;;;;;;;;;;;;;;23.95;48.17;96685.06;4241365;27;5859;-78
2023/06/02 07:33:12;;;;;;;;;;;;;;;23.88;48.49;96679.97;4242289;27;5586;-83
2023/06/02 07:35:16;;;;;;;;;;;;;;;23.90;48.09;96682.41;4249796;27;5617;-84
2023/06/02 07:37:19;;;;;;;;;;;;;;;23.88;48.17;96679.19;4240254;27;6396;-83
2023/06/02 07:39:22;;;;;;;;;;;;;;;23.87;48.43;96683.78;4242776;27;5597;-83
2023/06/02 07:41:25;;;;;;;;;;;;;;;23.88;48.08;96679.19;4244597;27;5676;-81
2023/06/02 07:43:28;;;;;;;;;;;;;;;23.88;47.89;96673.78;4249910;27;5657;-83
2023/06/02 07:45:32;;;;;;;;;;;;;;;23.87;47.99;96675.69;4242484;27;5072;-81
2023/06/02 07:47:35;;;;;;;;;;;;;;;23.88;47.97;96681.88;4243209;27;5616;-80
2023/06/02 07:49:38;;;;;;;;;;;;;;;23.87;47.64;96672.97;4247699;27;5725;-79
2023/06/02 07:51:41;;;;;;;;;;;;;;;23.84;48.07;96670.84;4236793;27;5597;-82
2023/06/02 07:53:44;;;;;;;;;;;;;;;23.82;47.69;96670.31;4236079;27;5601;-82
2023/06/02 07:55:47;;;;;;;;;;;;;;;23.78;47.85;96672.78;4235768;27;5601;-83
2023/06/02 07:57:50;;;;;;;;;;;;;;;23.79;47.58;96671.69;4251570;27;5684;-83
2023/06/02 07:59:55;;;;;;;;;;;;;;;23.80;47.78;96670.59;4237494;27;6279;-83
2023/06/02 08:01:59;;;;;;;;;;;;;;;23.83;47.39;96671.13;4244616;27;5726;-81
2023/06/02 08:04:02;;;;;;;;;;;;;;;23.83;47.55;96663.03;4244314;27;5590;-84
2023/06/02 08:06:06;;;;;;;;;;;;;;;23.82;47.37;96664.94;4241623;27;5585;-82
2023/06/02 08:08:08;;;;;;;;;;;;;;;23.80;47.22;96667.09;4263371;27;5702;-82
2023/06/02 08:10:12;;;;;;;;;;;;;;;23.80;47.73;96667.09;4258935;27;5590;-82
2023/06/02 08:12:15;;;;;;;;;;;;;;;23.81;47.30;96666.81;4251649;27;5681;-81
2023/06/02 08:14:18;;;;;;;;;;;;;;;23.81;47.41;96671.41;4246583;27;6402;-82
2023/06/02 08:16:21;;;;;;;;;;;;;;;23.80;47.21;96661.72;4246919;27;5578;-81
2023/06/02 08:18:37;;;;;;;;;;;;;;;23.78;47.00;96663.84;4241623;27;5810;-81
2023/06/02 08:20:41;;;;;;;;;;;;;;;23.77;47.46;96660.34;4246874;27;5570;-81
2023/06/02 08:22:45;;;;;;;;;;;;;;;23.77;47.00;96657.66;4257517;27;5078;-83
2023/06/02 08:24:49;;;;;;;;;;;;;;;23.80;47.57;96657.13;4246839;27;5567;-80
2023/06/02 08:26:52;;;;;;;;;;;;;;;23.79;47.33;96660.09;4235943;27;5589;-83
2023/06/02 08:28:55;;;;;;;;;;;;;;;23.77;47.05;96657.66;4243674;27;5087;-83
2023/06/02 08:30:58;;;;;;;;;;;;;;;23.77;47.57;96649.56;4261257;27;5738;-81
2023/06/02 08:33:03;;;;;;;;;;;;;;;23.81;46.94;96653.31;4254776;27;5591;-77
2023/06/02 08:35:08;;;;;;;;;;;;;;;23.85;47.41;96652.75;4239662;27;5552;-76
2023/06/02 08:37:15;;;;;;;;;;;;;;;23.86;47.32;96652.47;4257876;27;5670;-81
2023/06/02 08:39:18;;;;;;;;;;;;;;;23.87;47.16;96647.88;4238446;27;5605;-78
2023/06/02 08:41:21;;;;;;;;;;;;;;;23.87;46.83;96639.78;4242401;27;5632;-82
2023/06/02 08:43:24;;;;;;;;;;;;;;;23.87;47.04;96639.78;4243021;27;5739;-81
2023/06/02 08:45:27;;;;;;;;;;;;;;;23.87;46.80;96643.28;4248466;27;6289;-67
2023/06/02 08:47:32;;;;;;;;;;;;;;;23.83;46.79;96638.72;4245273;27;5620;-67
2023/06/02 08:49:36;;;;;;;;;;;;;;;23.84;46.69;96637.66;4248018;27;5587;-68
2023/06/02 08:51:43;;;;;;;;;;;;;;;23.87;47.06;96639.78;4237829;27;5596;-72
2023/06/02 08:53:46;;;;;;;;;;;;;;;23.89;46.63;96637.59;4237172;27;5593;-71
2023/06/02 08:55:49;;;;;;;;;;;;;;;23.90;47.07;96637.34;4235055;27;5609;-69
2023/06/02 08:57:52;;;;;;;;;;;;;;;23.93;46.82;96635.97;4258967;27;5572;-71
2023/06/02 08:59:55;;;;;;;;;;;;;;;23.92;46.42;96631.66;4248148;27;5764;-72
2023/06/02 09:02:00;;;;;;;;;;;;;;;23.93;46.46;96630.56;4240908;27;5712;-78
2023/06/02 09:04:03;;;;;;;;;;;;;;;23.94;46.51;96637.56;4249556;27;5672;-81
2023/06/02 09:06:22;;;;;;;;;;;;;;;23.97;46.17;96634.31;4261662;27;5582;-82
2023/06/02 09:08:29;;;;;;;;;;;;;;;23.98;46.32;96630.50;4248721;27;6477;-81
2023/06/02 09:10:33;;;;;;;;;;;;;;;23.98;46.57;96636.72;4255803;27;5661;-81
2023/06/02 09:12:48;;;;;;;;;;;;;;;23.99;46.12;96629.41;4264256;27;5619;-81
2023/06/02 09:15:08;;;;;;;;;;;;;;;24.00;46.25;96634.53;4258872;27;5643;-85
2023/06/02 09:17:27;;;;;;;;;;;;;;;24.01;46.50;96630.78;4258612;27;5628;-77
2023/06/02 09:19:49;;;;;;;;;;;;;;;23.99;46.22;96621.31;4250829;27;5612;-82
2023/06/02 09:21:53;;;;;;;;;;;;;;;24.01;46.29;96630.78;4242059;27;5714;-79
2023/06/02 09:23:58;;;;;;;;;;;;;;;23.99;46.07;96627.53;4249021;27;5634;-81
2023/06/02 09:26:21;;;;;;;;;;;;;;;24.03;45.80;96630.47;4249986;27;5587;-78
2023/06/02 09:28:25;;;;;;;;;;;;;;;24.06;46.21;96622.63;4269769;27;6272;-79
2023/06/02 09:30:29;;;;;;;;;;;;;;;24.08;46.07;96627.72;4253470;27;5673;-85
2023/06/02 09:32:36;;;;;;;;;;;;;;;24.09;45.78;96632.03;4268519;27;5595;-76
2023/06/02 09:34:40;;;;;;;;;;;;;;;24.07;46.14;96629.63;4253795;27;5571;-80
2023/06/02 09:36:45;;;;;;;;;;;;;;;24.06;45.77;96627.22;4252016;27;5682;-82
2023/06/02 09:38:48;;;;;;;;;;;;;;;24.07;45.70;96626.13;4226743;27;5894;-81
2023/06/02 09:40:52;;;;;;;;;;;;;;;24.07;46.00;96618.00;4246075;27;5657;-81
2023/06/02 09:42:55;;;;;;;;;;;;;;;24.10;45.78;96618.25;4270348;27;5564;-81
2023/06/02 09:45:06;;;;;;;;;;;;;;;24.12;45.59;96623.34;4262483;27;5605;-78
2023/06/02 09:47:22;;;;;;;;;;;;;;;24.15;45.78;96617.41;4258135;27;5579;-75
2023/06/02 09:49:25;;;;;;;;;;;;;;;24.16;45.83;96612.81;4251950;27;5594;-81
2023/06/02 09:51:28;;;;;;;;;;;;;;;24.17;45.24;96612.53;4251095;27;5135;-77
2023/06/02 09:53:32;;;;;;;;;;;;;;;24.15;45.35;96609.31;4249332;27;5590;-85
2023/06/02 09:55:37;;;;;;;;;;;;;;;24.13;44.98;96608.78;4257581;27;5594;-73
2023/06/02 09:57:42;;;;;;;;;;;;;;;24.12;45.39;96612.56;4260629;27;5578;-71
2023/06/02 09:59:46;;;;;;;;;;;;;;;24.16;45.12;96607.41;4242954;27;5586;-72
2023/06/02 10:01:49;;;;;;;;;;;;;;;24.19;45.10;96610.34;4259998;27;5582;-72
2023/06/02 10:03:52;;;;;;;;;;;;;;;24.20;45.01;96613.84;4254174;27;5583;-72
2023/06/02 10:06:07;;;;;;;;;;;;;;;24.21;45.24;96610.84;4251874;27;5604;-72
2023/06/02 10:08:23;;;;;;;;;;;;;;;24.22;44.97;96607.06;4257030;27;5677;-72
2023/06/02 10:10:38;;;;;;;;;;;;;;;24.23;45.01;96600.56;4260742;27;5666;-72
2023/06/02 10:13:01;;;;;;;;;;;;;;;24.28;44.74;96608.66;4260691;27;5552;-71
2023/06/02 10:15:22;;;;;;;;;;;;;;;24.30;44.71;96601.09;4240313;27;5865;-71
2023/06/02 10:17:36;;;;;;;;;;;;;;;24.28;44.72;96592.44;4258192;27;5579;-71
2023/06/02 10:20:05;;;;;;;;;;;;;;;24.30;44.64;96598.38;4239715;27;5791;-71
2023/06/02 10:22:25;;;;;;;;;;;;;;;24.32;44.15;96596.19;4236235;27;5699;-71
2023/06/02 10:24:39;;;;;;;;;;;;;;;24.34;44.31;96595.91;4254064;27;5687;-71
2023/06/02 10:26:56;;;;;;;;;;;;;;;24.35;44.16;96592.13;4244972;27;5654;-71
2023/06/02 10:29:03;;;;;;;;;;;;;;;24.37;44.41;96590.75;4240022;27;5593;-71
2023/06/02 10:31:08;;;;;;;;;;;;;;;24.39;44.29;96587.78;4245744;27;5593;-72
2023/06/02 10:33:11;;;;;;;;;;;;;;;24.43;44.18;96582.59;4248797;27;5719;-71
2023/06/02 10:35:14;;;;;;;;;;;;;;;24.43;44.07;96582.59;4259353;27;5630;-71
2023/06/02 10:37:19;;;;;;;;;;;;;;;24.43;44.06;96578.00;4248746;27;5613;-71
2023/06/02 10:39:47;;;;;;;;;;;;;;;24.45;44.05;96570.41;4244318;27;5578;-72
2023/06/02 10:42:06;;;;;;;;;;;;;;;24.48;44.08;96567.13;4245232;27;5857;-72
2023/06/02 10:44:25;;;;;;;;;;;;;;;24.52;44.33;96570.88;4244059;27;5586;-72
2023/06/02 10:46:29;;;;;;;;;;;;;;;24.52;44.48;96567.38;4250151;27;5567;-72
2023/06/02 10:48:36;;;;;;;;;;;;;;;24.52;44.16;96567.38;4262146;27;5574;-72
2023/06/02 10:50:54;;;;;;;;;;;;;;;24.51;44.08;96565.75;4242651;27;5594;-72
2023/06/02 10:53:09;;;;;;;;;;;;;;;24.52;44.66;96564.66;4235233;27;5713;-72
2023/06/02 10:55:32;;;;;;;;;;;;;;;24.52;44.34;96567.38;4238542;27;5579;-72
2023/06/02 10:57:51;;;;;;;;;;;;;;;24.55;44.06;96566.78;4241445;27;5700;-72
2023/06/02 10:59:55;;;;;;;;;;;;;;;24.56;44.37;96560.28;4236084;27;5574;-72
2023/06/02 11:01:58;;;;;;;;;;;;;;;24.58;44.48;96563.53;4256268;27;5731;-72
2023/06/02 11:04:29;;;;;;;;;;;;;;;24.60;44.36;96561.34;4262071;27;5684;-72
2023/06/02 11:06:32;;;;;;;;;;;;;;;24.60;44.79;96555.94;4253402;27;5664;-72
2023/06/02 11:08:36;;;;;;;;;;;;;;;24.62;44.61;96556.44;4251800;27;5764;-72
2023/06/02 11:10:44;;;;;;;;;;;;;;;24.63;44.41;96556.16;4268001;27;5563;-72
2023/06/02 11:13:04;;;;;;;;;;;;;;;24.65;44.44;96553.94;4243988;27;5082;-72
2023/06/02 11:15:19;;;;;;;;;;;;;;;24.67;44.47;96557.16;4253770;27;5597;-72
2023/06/02 11:17:32;;;;;;;;;;;;;;;24.68;44.76;96547.97;4251235;27;5593;-71
2023/06/02 11:19:48;;;;;;;;;;;;;;;24.71;44.66;96554.72;4242465;27;5598;-71
2023/06/02 11:22:03;;;;;;;;;;;;;;;24.75;44.38;96542.22;4240889;27;5586;-72
2023/06/02 11:24:08;;;;;;;;;;;;;;;24.80;44.27;96531.31;4250247;27;5598;-72
2023/06/02 11:26:15;;;;;;;;;;;;;;;24.82;44.38;96528.34;4251743;27;5586;-72
2023/06/02 11:28:20;;;;;;;;;;;;;;;24.83;44.77;96538.88;4260897;27;5566;-72
2023/06/02 11:30:25;;;;;;;;;;;;;;;24.82;44.77;96531.88;4242743;27;5729;-72
2023/06/02 11:32:28;;;;;;;;;;;;;;;24.85;44.48;96531.28;4249489;27;5594;-72
2023/06/02 11:34:31;;;;;;;;;;;;;;;24.84;44.95;96532.38;4242570;27;6259;-73
2023/06/02 11:36:39;;;;;;;;;;;;;;;24.84;44.72;96521.56;4241723;27;5684;-74
2023/06/02 11:38:43;;;;;;;;;;;;;;;24.88;44.50;96521.78;4238370;27;7710;-72
2023/06/02 11:40:46;;;;;;;;;;;;;;;24.89;44.61;96521.47;4257825;27;5651;-73
2023/06/02 11:42:49;;;;;;;;;;;;;;;24.91;44.92;96530.09;4251617;27;5645;-71
2023/06/02 11:44:52;;;;;;;;;;;;;;;24.90;44.96;96516.88;4236648;27;5726;-73
2023/06/02 11:46:56;;;;;;;;;;;;;;;24.89;44.89;96516.06;4243219;27;5593;-73
2023/06/02 11:49:00;;;;;;;;;;;;;;;24.91;44.93;96505.75;4238542;27;5609;-75
2023/06/02 11:51:04;;;;;;;;;;;;;;;24.94;44.84;96509.81;4240380;27;5716;-79
2023/06/02 11:53:14;;;;;;;;;;;;;;;24.95;44.51;96506.81;4241171;27;5637;-78
2023/06/02 11:55:17;;;;;;;;;;;;;;;25.00;44.84;96505.13;4236527;27;5819;-78
2023/06/02 11:57:30;;;;;;;;;;;;;;;25.01;44.99;96496.75;4238401;27;5589;-74
2023/06/02 11:59:33;;;;;;;;;;;;;;;25.04;44.66;96492.66;4242908;27;5586;-82
2023/06/02 12:01:36;;;;;;;;;;;;;;;25.10;44.65;96492.28;4240804;27;6407;-80
2023/06/02 12:03:41;;;;;;;;;;;;;;;25.11;44.92;96495.78;4238625;27;5673;-76
2023/06/02 12:05:47;;;;;;;;;;;;;;;25.10;44.73;96483.38;4225628;27;5743;-76
2023/06/02 12:07:50;;;;;;;;;;;;;;;25.11;45.06;96491.19;4240716;27;5589;-76
2023/06/02 12:09:53;;;;;;;;;;;;;;;25.13;45.16;96493.59;4241760;27;5684;-82
2023/06/02 12:12:08;;;;;;;;;;;;;;;25.14;44.70;96484.38;4239016;27;5581;-77
2023/06/02 12:14:13;;;;;;;;;;;;;;;25.16;45.18;96484.91;4237039;27;7755;-76
2023/06/02 12:16:20;;;;;;;;;;;;;;;25.18;44.99;96474.59;4246388;27;5675;-75
2023/06/02 12:18:31;;;;;;;;;;;;;;;25.17;45.01;96465.69;4239163;27;5677;-74
2023/06/02 12:20:38;;;;;;;;;;;;;;;25.19;44.94;96462.69;4242162;27;5700;-78
2023/06/02 12:22:54;;;;;;;;;;;;;;;25.18;45.16;96459.16;4237354;27;5781;-81
2023/06/02 12:24:57;;;;;;;;;;;;;;;25.21;45.23;96465.88;4243992;27;5574;-75
2023/06/02 12:27:01;;;;;;;;;;;;;;;25.22;45.25;96465.59;4239759;27;5638;-81
2023/06/02 12:29:03;;;;;;;;;;;;;;;25.24;44.86;96451.75;4239663;27;5582;-82
2023/06/02 12:31:07;;;;;;;;;;;;;;;25.31;45.13;96454.91;4247321;27;7671;-78
2023/06/02 12:33:12;;;;;;;;;;;;;;;25.37;45.14;96455.63;4237896;27;5590;-79
2023/06/02 12:35:15;;;;;;;;;;;;;;;25.37;45.27;96458.31;4235915;27;5596;-76
2023/06/02 12:37:20;;;;;;;;;;;;;;;25.37;45.02;96452.91;4237700;27;5661;-80
2023/06/02 12:39:23;;;;;;;;;;;;;;;25.35;44.98;96457.81;4252436;27;5985;-83
2023/06/02 12:41:27;;;;;;;;;;;;;;;25.33;45.19;96454.59;4240535;27;5770;-84
2023/06/02 12:43:30;;;;;;;;;;;;;;;25.34;45.13;96440.78;4250943;27;5782;-79
2023/06/02 12:45:33;;;;;;;;;;;;;;;25.36;45.36;96437.78;4246312;27;6214;-81
2023/06/02 12:47:36;;;;;;;;;;;;;;;25.38;45.17;96447.22;4260533;27;5582;-80
2023/06/02 12:49:39;;;;;;;;;;;;;;;25.41;45.10;96451.22;4243551;27;5654;-78
2023/06/02 12:51:43;;;;;;;;;;;;;;;25.44;45.01;96440.63;4245130;27;5649;-83
2023/06/02 12:53:48;;;;;;;;;;;;;;;25.51;44.94;96435.63;4248446;27;5612;-77
2023/06/02 12:55:51;;;;;;;;;;;;;;;25.59;44.44;96441.44;4243673;27;6387;-78
2023/06/02 12:57:55;;;;;;;;;;;;;;;25.70;44.07;96426.66;4239437;27;5594;-78
2023/06/02 13:00:00;;;;;;;;;;;;;;;25.79;43.48;96427.56;4246595;27;5574;-78
2023/06/02 13:02:03;;;;;;;;;;;;;;;25.95;42.74;96433.53;4261383;27;6357;-78
2023/06/02 13:04:07;;;;;;;;;;;;;;;26.06;42.06;96432.22;4243849;27;5719;-78
2023/06/02 13:06:11;;;;;;;;;;;;;;;26.16;41.25;96429.28;4244911;27;5838;-78
2023/06/02 13:08:15;;;;;;;;;;;;;;;26.28;41.08;96426.09;4238895;27;5586;-78
2023/06/02 13:10:21;;;;;;;;;;;;;;;26.35;40.89;96416.44;4243685;27;5578;-78
2023/06/02 13:12:24;;;;;;;;;;;;;;;26.40;40.48;96429.13;4245655;27;5593;-78
2023/06/02 13:14:27;;;;;;;;;;;;;;;26.48;40.04;96420.25;4228517;27;5608;-77
2023/06/02 13:16:31;;;;;;;;;;;;;;;26.56;39.56;96416.84;4239397;27;5601;-78
2023/06/02 13:18:35;;;;;;;;;;;;;;;26.59;39.32;96410.81;4241122;27;5731;-78
2023/06/02 13:20:38;;;;;;;;;;;;;;;26.68;39.05;96417.13;4258865;27;5622;-77
2023/06/02 13:22:41;;;;;;;;;;;;;;;26.79;38.34;96416.88;4247553;27;5578;-77
2023/06/02 13:24:44;;;;;;;;;;;;;;;26.89;38.34;96419.38;4239826;27;6277;-78
2023/06/02 13:26:48;;;;;;;;;;;;;;;26.99;37.74;96402.88;4238002;27;5605;-77
2023/06/02 13:28:51;;;;;;;;;;;;;;;27.05;37.57;96404.34;4243957;27;5773;-79
2023/06/02 13:30:54;;;;;;;;;;;;;;;27.07;37.26;96399.44;4241127;27;5594;-78
2023/06/02 13:32:57;;;;;;;;;;;;;;;27.09;37.36;96391.81;4238287;27;5930;-78
2023/06/02 13:35:00;;;;;;;;;;;;;;;27.16;37.20;96391.34;4245059;27;5597;-78
2023/06/02 13:37:03;;;;;;;;;;;;;;;27.18;37.08;96398.09;4247771;27;6473;-78
2023/06/02 13:39:07;;;;;;;;;;;;;;;27.22;36.71;96388.22;4256708;27;5569;-78
2023/06/02 13:41:10;;;;;;;;;;;;;;;27.27;36.16;96393.50;4253091;27;5716;-79
2023/06/02 13:43:15;;;;;;;;;;;;;;;27.26;35.96;96394.63;4254773;27;5609;-74
2023/06/02 13:45:18;;;;;;;;;;;;;;;27.30;35.92;96396.72;4242154;27;5599;-71
2023/06/02 13:47:20;;;;;;;;;;;;;;;27.35;35.47;96386.53;4240427;27;5733;-70
2023/06/02 13:49:23;;;;;;;;;;;;;;;27.40;35.41;96388.31;4243893;27;5908;-74
2023/06/02 13:51:27;;;;;;;;;;;;;;;27.42;35.04;96377.97;4247471;27;5781;-78
2023/06/02 13:53:30;;;;;;;;;;;;;;;27.41;35.26;96388.03;4218072;27;5764;-76
2023/06/02 13:55:34;;;;;;;;;;;;;;;27.43;34.60;96380.38;4239285;27;5991;-79
2023/06/02 13:57:39;;;;;;;;;;;;;;;27.45;34.54;96375.41;4240369;27;5126;-78
2023/06/02 13:59:44;;;;;;;;;;;;;;;27.42;34.82;96380.69;4236426;27;5669;-84
2023/06/02 14:01:47;;;;;;;;;;;;;;;27.40;34.64;96380.16;4239462;27;5720;-78
2023/06/02 14:03:50;;;;;;;;;;;;;;;27.40;34.53;96378.25;4240328;27;5590;-73
2023/06/02 14:05:53;;;;;;;;;;;;;;;27.44;34.31;96367.59;4238133;27;5780;-77
2023/06/02 14:07:56;;;;;;;;;;;;;;;27.53;34.13;96374.66;4244392;27;5726;-77
2023/06/02 14:09:59;;;;;;;;;;;;;;;27.56;33.87;96373.25;4235924;27;5605;-73
2023/06/02 14:12:02;;;;;;;;;;;;;;;27.58;33.74;96368.28;4238758;27;5680;-72
2023/06/02 14:14:05;;;;;;;;;;;;;;;27.64;33.43;96375.19;4237084;27;5666;-75
2023/06/02 14:16:10;;;;;;;;;;;;;;;27.67;32.96;96371.88;4239594;27;6932;-74
2023/06/02 14:18:13;;;;;;;;;;;;;;;27.65;33.22;96371.41;4245899;27;5720;-76
2023/06/02 14:20:16;;;;;;;;;;;;;;;27.66;32.93;96373.00;4244787;27;5669;-77
2023/06/02 14:22:19;;;;;;;;;;;;;;;27.66;33.01;96362.13;4242241;27;5795;-79
2023/06/02 14:24:23;;;;;;;;;;;;;;;27.61;32.82;96375.00;4239510;27;5601;-75
2023/06/02 14:26:27;;;;;;;;;;;;;;;27.61;32.61;96372.28;4245445;27;6531;-76
2023/06/02 14:28:30;;;;;;;;;;;;;;;27.62;32.43;96371.97;4247615;27;5811;-75
2023/06/02 14:30:33;;;;;;;;;;;;;;;27.62;32.35;96365.75;4239696;27;5586;-71
2023/06/02 14:32:37;;;;;;;;;;;;;;;27.61;32.22;96359.50;4238652;27;5888;-73
2023/06/02 14:34:40;;;;;;;;;;;;;;;27.64;32.05;96356.19;4239894;27;6529;-72
2023/06/02 14:36:43;;;;;;;;;;;;;;;27.65;31.90;96354.31;4240203;27;5796;-83
2023/06/02 14:38:46;;;;;;;;;;;;;;;27.65;31.88;96357.81;4237522;27;5717;-75
2023/06/02 14:40:49;;;;;;;;;;;;;;;27.64;31.80;96345.34;4238105;27;5955;-74
2023/06/02 14:42:52;;;;;;;;;;;;;;;27.62;31.91;96346.72;4241259;27;5684;-74
2023/06/02 14:44:55;;;;;;;;;;;;;;;27.63;31.73;96346.41;4238446;27;5776;-78
2023/06/02 14:46:58;;;;;;;;;;;;;;;27.61;31.65;96337.78;4252154;27;5578;-74
2023/06/02 14:49:03;;;;;;;;;;;;;;;27.59;31.73;96333.78;4235151;27;5932;-72
2023/06/02 14:51:07;;;;;;;;;;;;;;;27.61;31.71;96326.94;4237778;27;5787;-79
2023/06/02 14:53:10;;;;;;;;;;;;;;;27.66;31.69;96320.59;4235606;27;5692;-78
2023/06/02 14:55:13;;;;;;;;;;;;;;;27.72;31.41;96320.13;4241723;27;5845;-78
2023/06/02 14:57:16;;;;;;;;;;;;;;;27.76;31.25;96328.47;4240116;27;5783;-80
2023/06/02 14:59:19;;;;;;;;;;;;;;;27.79;31.36;96327.84;4248656;27;5669;-79
2023/06/02 15:01:22;;;;;;;;;;;;;;;27.79;31.13;96312.34;4233396;27;5609;-79
2023/06/02 15:03:25;;;;;;;;;;;;;;;27.80;31.24;96313.94;4230989;27;6635;-79
2023/06/02 15:05:30;;;;;;;;;;;;;;;27.83;30.81;96307.88;4249413;27;5650;-79
2023/06/02 15:07:37;;;;;;;;;;;;;;;27.87;30.97;96315.41;4221599;28;6479;-79
2023/06/02 15:09:39;;;;;;;;;;;;;;;27.87;30.86;96315.41;4232657;27;5604;-78
2023/06/02 15:11:42;;;;;;;;;;;;;;;27.84;30.69;96314.91;4236511;27;5715;-80
2023/06/02 15:13:46;;;;;;;;;;;;;;;27.87;30.76;96315.41;4237603;27;6354;-80
2023/06/02 15:15:49;;;;;;;;;;;;;;;27.90;30.54;96312.84;4233394;27;5676;-78
2023/06/02 15:17:51;;;;;;;;;;;;;;;27.93;30.32;96306.78;4241475;27;5803;-78
2023/06/02 15:19:55;;;;;;;;;;;;;;;27.96;30.41;96321.63;4232566;27;5725;-79
2023/06/02 15:21:59;;;;;;;;;;;;;;;27.95;30.51;96323.56;4238881;27;5581;-81
2023/06/02 15:24:03;;;;;;;;;;;;;;;27.91;30.64;96313.66;4233593;27;5657;-78
2023/06/02 15:26:06;;;;;;;;;;;;;;;27.85;30.72;96312.97;4237145;27;7875;-75
2023/06/02 15:28:09;;;;;;;;;;;;;;;27.84;30.72;96314.91;4238460;27;6398;-78